Portada
METAR-TAF:

METAR-TAF

Aeropuertos :

Sabadell, España

Aeropuerto de Sabadell

latitud: 41-31N, longitud: 002-06E, altitud: 250 m

Observación

El informe se hizo hace 24 minutos, a las 02:30 UTC
Viento 3 kt del oeste
Temperatura 8°C
Humedad 93%
Presión 1021 hPa
Visibilidad 10 km o más

METAR: LELL 180230Z AUTO 28003KT 9999 NCD 08/07 Q1021

Hora: 03:54 (02:54 UTC)

Pronóstico

El informe se hizo hace 54 minutos, a las 02:00 UTC
Pronóstico válido del 18 a las 03 UTC al 19 a las 03 UTC
Viento 4 kt con dirección variable
Visibilidad 10 km o más
Nubes dispersas a una altura de 2000 ft
Temporalmente
del 18 a las 03 UTC al 18 a las 12 UTC
Cielo nuboso a una altura de 1200 ft
Probabilidad 30% :
Temporalmente
del 18 a las 03 UTC al 18 a las 09 UTC
Visibilidad: 3000 m
neblina

TAF: LELL 180200Z 1803/1903 VRB04KT 9999 SCT020 TX15/1813Z TN05/1806Z TEMPO 1803/1812 BKN012 PROB30 TEMPO 1803/1809 3000 BR

Observaciones y pronósticos meteorológicos de más de 4000 aeropuertos (mensajes METAR y TAF).

Los puntos amarillos y rojos representan las estaciones disponibles.

Ponga el ratón en el punto deseado para ver el nombre de la estación.

Haga clic para ver las observaciones y los pronósticos meteorológicos.

Para cambiar el mapa : haga clic en los botones verdes con una cruz de color negro para hacer un zoom, en el botón verde con un guión para alejar o en las flechas verdes para mapas adyacentes.


METAR-TAF: